createdAt,value
2019-02-27T00:00:32.899Z,92.80
2019-02-27T00:03:01.740Z,92.50
2019-02-27T00:05:30.483Z,92.40
2019-02-27T00:08:00.226Z,92.30
2019-02-27T00:10:29.060Z,92.40
2019-02-27T00:12:57.831Z,92.50
2019-02-27T00:15:26.812Z,92.50
2019-02-27T00:17:55.587Z,92.50
2019-02-27T00:20:24.348Z,92.30
2019-02-27T00:22:53.227Z,92.30
2019-02-27T00:25:21.979Z,92.50
2019-02-27T00:27:50.802Z,92.40
2019-02-27T00:30:19.668Z,92.30
2019-02-27T00:32:50.888Z,92.30
2019-02-27T00:35:18.851Z,92.30
2019-02-27T00:37:51.841Z,92.40
2019-02-27T00:40:18.036Z,92.30
2019-02-27T00:42:46.771Z,92.30
2019-02-27T00:45:15.612Z,92.40
2019-02-27T00:47:44.362Z,92.60
2019-02-27T00:50:13.190Z,92.60
2019-02-27T00:52:42.004Z,92.50
2019-02-27T00:55:10.795Z,92.50
2019-02-27T00:57:39.642Z,92.60
2019-02-27T01:00:15.348Z,92.60
2019-02-27T01:02:44.116Z,92.60
2019-02-27T01:05:12.991Z,92.60
2019-02-27T01:07:42.170Z,92.80
2019-02-27T01:10:12.880Z,92.80
2019-02-27T01:12:41.828Z,92.80
2019-02-27T01:15:12.342Z,92.70
2019-02-27T01:17:41.090Z,92.60
2019-02-27T01:20:12.588Z,92.60
2019-02-27T01:22:41.388Z,92.60
2019-02-27T01:25:10.225Z,92.60
2019-02-27T01:27:38.970Z,92.70
2019-02-27T01:30:10.718Z,92.80
2019-02-27T01:32:39.484Z,92.80
2019-02-27T01:35:10.203Z,92.90
2019-02-27T01:37:39.010Z,92.90
2019-02-27T01:40:10.946Z,92.80
2019-02-27T01:42:39.773Z,92.90
2019-02-27T01:45:11.252Z,92.90
2019-02-27T01:47:40.692Z,93.10
2019-02-27T01:50:29.736Z,93.10
2019-02-27T01:52:58.556Z,93.20
2019-02-27T01:55:27.316Z,93.20
2019-02-27T01:57:56.145Z,93.20
2019-02-27T02:00:24.970Z,93.20
2019-02-27T02:02:53.726Z,93.20
2019-02-27T02:05:26.282Z,93.30
2019-02-27T02:07:53.131Z,93.30
2019-02-27T02:10:21.884Z,93.40
2019-02-27T02:12:53.635Z,93.50
2019-02-27T02:15:45.174Z,93.50
2019-02-27T02:18:19.796Z,93.50
2019-02-27T02:21:01.654Z,93.50
2019-02-27T02:23:59.609Z,93.60
2019-02-27T02:26:40.396Z,93.60
2019-02-27T02:29:33.212Z,93.70
2019-02-27T02:32:17.360Z,93.70
2019-02-27T02:35:18.698Z,93.90
2019-02-27T02:37:53.396Z,94.10
2019-02-27T02:40:51.006Z,94.30
2019-02-27T02:43:31.435Z,94.50
2019-02-27T02:46:08.801Z,94.70
2019-02-27T02:49:06.266Z,94.70
2019-02-27T02:51:52.093Z,94.90
2019-02-27T02:54:40.527Z,94.80
2019-02-27T02:57:14.922Z,94.90
2019-02-27T02:59:49.338Z,94.80
2019-02-27T03:02:41.588Z,94.80
2019-02-27T03:05:38.621Z,94.70
2019-02-27T03:08:20.162Z,94.70
2019-02-27T03:10:58.829Z,94.80
2019-02-27T03:13:51.739Z,95.30
2019-02-27T03:16:41.154Z,95.10
2019-02-27T03:19:28.210Z,95.20
2019-02-27T03:22:21.247Z,95.10
2019-02-27T03:24:53.043Z,95.10
2019-02-27T03:27:30.603Z,95.10
2019-02-27T03:30:13.021Z,95.30
2019-02-27T03:32:56.325Z,95.40
2019-02-27T03:35:39.866Z,95.40
2019-02-27T03:38:28.557Z,95.40
2019-02-27T03:41:22.844Z,95.40
2019-02-27T03:44:12.540Z,95.40
2019-02-27T03:46:50.363Z,95.40
2019-02-27T03:49:27.892Z,95.30
2019-02-27T03:52:21.165Z,95.40
2019-02-27T03:55:12.749Z,95.40
2019-02-27T03:58:09.966Z,95.40
2019-02-27T04:00:53.828Z,95.40
2019-02-27T04:03:57.347Z,95.30
2019-02-27T04:06:44.026Z,95.40
2019-02-27T04:09:18.599Z,95.40
2019-02-27T04:11:43.238Z,95.40
2019-02-27T04:14:29.351Z,95.40
2019-02-27T04:16:58.106Z,95.40
2019-02-27T04:19:26.909Z,95.40
2019-02-27T04:22:00.773Z,95.40
2019-02-27T04:24:26.157Z,95.40
2019-02-27T04:26:54.915Z,95.30
2019-02-27T04:29:23.738Z,95.20
2019-02-27T04:31:52.489Z,95.20
2019-02-27T04:34:21.270Z,95.40
2019-02-27T04:36:50.132Z,95.50
2019-02-27T04:39:18.915Z,95.70
2019-02-27T04:41:49.575Z,95.70
2019-02-27T04:44:18.132Z,95.70
2019-02-27T04:46:46.956Z,95.80
2019-02-27T04:49:15.707Z,95.90
2019-02-27T04:51:45.315Z,95.90
2019-02-27T04:54:14.061Z,95.90
2019-02-27T04:56:42.828Z,95.90
2019-02-27T04:59:11.628Z,95.80
2019-02-27T05:01:40.378Z,95.70
2019-02-27T05:04:09.285Z,95.60
2019-02-27T05:06:38.148Z,95.40
2019-02-27T05:09:07.371Z,95.40
2019-02-27T05:11:36.386Z,95.40
2019-02-27T05:14:05.220Z,95.40
2019-02-27T05:16:33.987Z,95.40
2019-02-27T05:19:04.023Z,95.40
2019-02-27T05:21:33.194Z,95.30
2019-02-27T05:24:01.941Z,95.30
2019-02-27T05:26:30.790Z,95.40
2019-02-27T05:28:59.635Z,95.30
2019-02-27T05:31:28.377Z,95.30
2019-02-27T05:33:57.141Z,95.20
2019-02-27T05:36:25.994Z,95.20
2019-02-27T05:38:54.836Z,95.30
2019-02-27T05:41:23.698Z,95.30
2019-02-27T05:43:52.627Z,95.20
2019-02-27T05:46:21.382Z,95.10
2019-02-27T05:48:50.897Z,95.00
2019-02-27T05:51:20.655Z,95.10
2019-02-27T05:53:49.442Z,95.00
2019-02-27T05:56:18.196Z,95.00
2019-02-27T05:58:47.083Z,95.00
2019-02-27T06:01:15.931Z,95.00
2019-02-27T06:03:44.762Z,94.90
2019-02-27T06:06:13.668Z,95.00
2019-02-27T06:08:42.427Z,94.90
2019-02-27T06:11:11.263Z,95.00
2019-02-27T06:13:40.074Z,95.00
2019-02-27T06:16:09.287Z,95.20
2019-02-27T06:18:38.243Z,95.30
2019-02-27T06:21:07.100Z,95.40
2019-02-27T06:23:37.884Z,95.40
2019-02-27T06:26:06.220Z,95.40
2019-02-27T06:28:35.091Z,95.30
2019-02-27T06:31:03.924Z,95.20
2019-02-27T06:33:32.649Z,95.10
2019-02-27T06:36:01.493Z,95.10
2019-02-27T06:38:30.316Z,95.00
2019-02-27T06:40:59.459Z,95.20
2019-02-27T06:43:28.434Z,95.20
2019-02-27T06:45:57.194Z,95.20
2019-02-27T06:48:26.035Z,95.40
2019-02-27T06:50:54.899Z,95.50
2019-02-27T06:53:23.731Z,95.70
2019-02-27T06:55:52.568Z,95.70
2019-02-27T06:58:21.470Z,95.70
2019-02-27T07:00:50.300Z,95.70
2019-02-27T07:03:19.091Z,95.60
2019-02-27T07:05:48.131Z,95.40
2019-02-27T07:08:17.643Z,95.30
2019-02-27T07:10:46.467Z,95.40
2019-02-27T07:13:15.243Z,95.20
2019-02-27T07:15:47.903Z,95.40
2019-02-27T07:18:14.533Z,95.40
2019-02-27T07:20:43.428Z,95.40
2019-02-27T07:23:12.286Z,95.30
2019-02-27T07:25:42.255Z,95.20
2019-02-27T07:28:11.677Z,95.10
2019-02-27T07:30:42.643Z,95.10
2019-02-27T07:33:11.083Z,95.40
2019-02-27T07:35:39.962Z,95.30
2019-02-27T07:38:08.812Z,95.30
2019-02-27T07:40:37.652Z,95.40
2019-02-27T07:43:06.852Z,95.40
2019-02-27T07:45:35.636Z,95.60
2019-02-27T07:48:04.555Z,95.50
2019-02-27T07:50:33.428Z,95.40
2019-02-27T07:53:02.187Z,95.40
2019-02-27T07:55:30.955Z,95.50
2019-02-27T07:57:59.923Z,95.30
2019-02-27T08:00:29.412Z,95.40
2019-02-27T08:02:58.123Z,95.30
2019-02-27T08:05:29.083Z,95.30
2019-02-27T08:07:57.404Z,95.00
2019-02-27T08:10:26.637Z,95.10
2019-02-27T08:12:56.633Z,94.90
2019-02-27T08:15:26.029Z,94.70
2019-02-27T08:17:57.633Z,94.80
2019-02-27T08:20:25.390Z,94.90
2019-02-27T08:22:54.211Z,95.00
2019-02-27T08:25:22.993Z,94.90
2019-02-27T08:27:54.067Z,94.90
2019-02-27T08:30:23.691Z,94.70
2019-02-27T08:32:52.515Z,94.80
2019-02-27T08:35:21.342Z,94.50
2019-02-27T08:37:50.100Z,94.60
2019-02-27T08:40:18.915Z,94.70
2019-02-27T08:42:47.811Z,94.80
2019-02-27T08:45:20.215Z,94.90
2019-02-27T08:47:48.149Z,94.90
2019-02-27T08:50:21.807Z,94.80
2019-02-27T08:52:51.705Z,94.60
2019-02-27T08:55:22.450Z,95.00
2019-02-27T08:57:55.475Z,95.00
2019-02-27T09:00:27.420Z,95.00
2019-02-27T09:02:56.418Z,94.80
2019-02-27T09:05:26.596Z,95.10
2019-02-27T09:07:55.477Z,94.60
2019-02-27T09:10:27.564Z,94.30
2019-02-27T09:13:05.008Z,94.90
2019-02-27T09:15:26.347Z,94.80
2019-02-27T09:17:55.252Z,94.90
2019-02-27T09:20:24.687Z,95.10
2019-02-27T09:22:53.434Z,94.80
2019-02-27T09:25:24.676Z,94.80
2019-02-27T09:27:52.916Z,94.40
2019-02-27T09:30:23.198Z,94.00
2019-02-27T09:32:52.138Z,93.70
2019-02-27T09:35:21.084Z,93.90
2019-02-27T09:37:51.214Z,93.50
2019-02-27T09:40:25.251Z,93.10
2019-02-27T09:42:54.147Z,93.40
2019-02-27T09:45:31.790Z,93.30
2019-02-27T09:48:00.937Z,93.30
2019-02-27T09:50:47.791Z,92.90
2019-02-27T09:53:13.971Z,92.70
2019-02-27T09:55:42.819Z,92.80
2019-02-27T09:58:12.605Z,92.50
2019-02-27T10:00:46.549Z,92.40
2019-02-27T10:03:20.208Z,92.20
2019-02-27T10:05:46.381Z,91.90
2019-02-27T10:08:15.206Z,91.60
2019-02-27T10:10:45.771Z,90.20
2019-02-27T10:13:14.534Z,90.60
2019-02-27T10:15:43.375Z,89.10
2019-02-27T10:18:12.221Z,87.20
2019-02-27T10:20:41.147Z,85.60
2019-02-27T10:23:09.955Z,83.10
2019-02-27T10:25:43.230Z,81.10
2019-02-27T10:28:10.725Z,79.40
2019-02-27T10:30:39.612Z,78.90
2019-02-27T10:33:11.105Z,77.50
2019-02-27T10:35:38.922Z,74.10
2019-02-27T10:38:07.755Z,75.30
2019-02-27T10:40:36.603Z,71.80
2019-02-27T10:43:05.475Z,71.10
2019-02-27T10:45:34.257Z,67.60
2019-02-27T10:48:03.020Z,68.70
2019-02-27T10:50:31.935Z,68.40
2019-02-27T10:53:00.758Z,67.40
2019-02-27T10:55:29.595Z,64.00
2019-02-27T10:57:58.398Z,63.10
2019-02-27T11:00:33.692Z,63.10
2019-02-27T11:03:02.766Z,62.10
2019-02-27T11:05:34.178Z,61.30
2019-02-27T11:08:02.929Z,61.70
2019-02-27T11:10:31.798Z,59.30
2019-02-27T11:13:05.725Z,60.40
2019-02-27T11:15:31.309Z,59.40
2019-02-27T11:18:04.354Z,57.20
2019-02-27T11:20:30.667Z,57.00
2019-02-27T11:22:59.426Z,54.40
2019-02-27T11:25:30.428Z,53.90
2019-02-27T11:27:59.259Z,52.30
2019-02-27T11:30:39.651Z,51.00
2019-02-27T11:33:08.490Z,53.30
2019-02-27T11:35:37.493Z,51.40
2019-02-27T11:38:06.459Z,51.00
2019-02-27T11:40:35.229Z,50.90
2019-02-27T11:43:06.414Z,50.30
2019-02-27T11:45:34.532Z,50.40
2019-02-27T11:48:03.475Z,52.00
2019-02-27T11:50:32.299Z,50.10
2019-02-27T11:53:02.895Z,49.80
2019-02-27T11:55:31.891Z,50.20
2019-02-27T11:58:04.236Z,50.70
2019-02-27T12:00:31.699Z,50.40
2019-02-27T12:03:01.420Z,51.20
2019-02-27T12:05:34.034Z,49.00
2019-02-27T12:08:00.983Z,49.90
2019-02-27T12:10:32.852Z,49.50
2019-02-27T12:13:01.820Z,50.30
2019-02-27T12:15:30.892Z,50.00
2019-02-27T12:18:01.716Z,49.10
2019-02-27T12:20:30.244Z,48.70
2019-02-27T12:22:59.146Z,48.80
2019-02-27T12:25:30.011Z,50.20
2019-02-27T12:27:58.661Z,50.00
2019-02-27T12:30:29.115Z,50.10
2019-02-27T12:32:57.892Z,50.00
2019-02-27T12:35:31.701Z,49.90
2019-02-27T12:38:00.539Z,49.40
2019-02-27T12:40:29.315Z,50.00
2019-02-27T12:42:58.140Z,49.30
2019-02-27T12:45:29.720Z,50.00
2019-02-27T12:47:58.765Z,49.50
2019-02-27T12:50:31.184Z,50.50
2019-02-27T12:52:59.308Z,49.50
2019-02-27T12:55:28.180Z,49.50
2019-02-27T12:57:57.075Z,48.10
2019-02-27T13:00:30.683Z,48.60
2019-02-27T13:02:59.483Z,47.70
2019-02-27T13:05:28.913Z,48.30
2019-02-27T13:07:57.907Z,50.80
2019-02-27T13:10:30.413Z,47.10
2019-02-27T13:12:58.028Z,47.40
2019-02-27T13:15:28.338Z,47.90
2019-02-27T13:17:57.976Z,48.30
2019-02-27T13:20:29.371Z,48.20
2019-02-27T13:22:58.267Z,46.60
2019-02-27T13:25:27.243Z,47.60
2019-02-27T13:27:56.083Z,46.90
2019-02-27T13:30:28.620Z,47.80
2019-02-27T13:33:00.650Z,46.50
2019-02-27T13:35:29.088Z,46.10
2019-02-27T13:37:58.053Z,45.30
2019-02-27T13:40:27.926Z,45.70
2019-02-27T13:42:56.726Z,44.70
2019-02-27T13:45:27.934Z,45.00
2019-02-27T13:47:56.676Z,45.30
2019-02-27T13:50:26.844Z,42.50
2019-02-27T13:52:55.906Z,42.80
2019-02-27T13:55:24.859Z,43.20
2019-02-27T13:57:58.910Z,42.70
2019-02-27T14:00:28.859Z,43.90
2019-02-27T14:02:57.639Z,44.70
2019-02-27T14:05:26.468Z,43.70
2019-02-27T14:07:58.324Z,43.20
2019-02-27T14:10:28.628Z,44.00
2019-02-27T14:12:57.466Z,43.70
2019-02-27T14:15:27.227Z,42.80
2019-02-27T14:17:56.853Z,42.60
2019-02-27T14:20:27.114Z,43.40
2019-02-27T14:22:56.099Z,44.50
2019-02-27T14:25:34.388Z,41.40
2019-02-27T14:28:03.287Z,41.60
2019-02-27T14:30:40.779Z,41.30
2019-02-27T14:33:10.970Z,40.70
2019-02-27T14:35:39.892Z,41.60
2019-02-27T14:41:01.227Z,41.30
2019-02-27T14:43:30.269Z,41.60
2019-02-27T14:45:59.108Z,39.60
2019-02-27T14:48:28.236Z,42.30
2019-02-27T14:50:57.068Z,42.00
2019-02-27T14:53:25.928Z,41.60
2019-02-27T14:55:54.840Z,41.40
2019-02-27T14:58:24.268Z,41.00
2019-02-27T15:00:53.771Z,40.10
2019-02-27T15:03:22.673Z,40.40
2019-02-27T15:05:51.533Z,40.50
2019-02-27T15:08:20.425Z,40.20
2019-02-27T15:10:49.314Z,41.60
2019-02-27T15:13:18.176Z,40.50
2019-02-27T15:15:47.025Z,39.70
2019-02-27T15:18:15.934Z,40.70
2019-02-27T15:20:44.691Z,38.50
2019-02-27T15:23:13.524Z,40.10
2019-02-27T15:25:43.328Z,39.00
2019-02-27T15:28:12.380Z,40.00
2019-02-27T15:30:41.146Z,40.10
2019-02-27T15:33:09.966Z,38.90
2019-02-27T15:35:38.796Z,39.70
2019-02-27T15:38:11.378Z,39.50
2019-02-27T15:40:38.440Z,40.60
2019-02-27T15:43:11.283Z,38.30
2019-02-27T15:45:47.420Z,39.30
2019-02-27T15:48:08.323Z,41.30
2019-02-27T15:50:37.315Z,42.30
2019-02-27T15:53:06.165Z,42.20
2019-02-27T15:55:35.430Z,42.30
2019-02-27T15:58:05.014Z,42.50
2019-02-27T16:00:33.846Z,43.70
2019-02-27T16:03:02.722Z,44.10
2019-02-27T16:05:31.834Z,44.90
2019-02-27T16:08:00.655Z,46.00
2019-02-27T16:10:29.854Z,45.50
2019-02-27T16:13:01.117Z,46.70
2019-02-27T16:15:29.187Z,48.30
2019-02-27T16:17:58.091Z,48.30
2019-02-27T16:20:27.745Z,49.40
2019-02-27T16:22:56.666Z,50.40
2019-02-27T16:25:26.757Z,52.00
2019-02-27T16:27:55.612Z,52.20
2019-02-27T16:30:33.160Z,52.40
2019-02-27T16:33:02.010Z,53.20
2019-02-27T16:35:30.836Z,53.60
2019-02-27T16:37:59.757Z,54.90
2019-02-27T16:40:31.567Z,55.50
2019-02-27T16:43:00.412Z,56.10
2019-02-27T16:45:36.847Z,57.00
2019-02-27T16:48:05.675Z,57.60
2019-02-27T16:50:34.558Z,58.30
2019-02-27T16:53:03.447Z,58.50
2019-02-27T16:55:36.013Z,58.90
2019-02-27T16:58:03.337Z,59.60
2019-02-27T17:00:37.141Z,60.00
2019-02-27T17:03:05.988Z,60.60
2019-02-27T17:05:34.868Z,61.20
2019-02-27T17:08:03.800Z,61.90
2019-02-27T17:10:39.854Z,61.90
2019-02-27T17:13:08.786Z,61.90
2019-02-27T17:15:39.923Z,62.00
2019-02-27T17:18:08.117Z,62.30
2019-02-27T17:20:37.003Z,62.50
2019-02-27T17:23:10.420Z,62.40
2019-02-27T17:25:36.340Z,61.60
2019-02-27T17:28:05.173Z,62.00
2019-02-27T17:30:39.970Z,62.00
2019-02-27T17:33:08.725Z,62.40
2019-02-27T17:35:37.911Z,63.10
2019-02-27T17:38:06.741Z,63.10
2019-02-27T17:40:37.674Z,63.30
2019-02-27T17:43:06.904Z,63.80
2019-02-27T17:45:35.848Z,63.90
2019-02-27T17:48:04.709Z,64.10
2019-02-27T17:50:33.621Z,65.30
2019-02-27T17:53:02.456Z,66.30
2019-02-27T17:55:31.309Z,66.90
2019-02-27T17:58:00.212Z,67.50
2019-02-27T18:00:34.280Z,67.60
2019-02-27T18:03:04.992Z,67.60
2019-02-27T18:05:35.644Z,68.00
2019-02-27T18:08:04.773Z,68.30
2019-02-27T18:10:37.139Z,68.80
2019-02-27T18:13:04.108Z,68.30
2019-02-27T18:15:32.933Z,68.90
2019-02-27T18:18:01.815Z,69.10
2019-02-27T18:20:32.177Z,69.30
2019-02-27T18:23:01.180Z,69.10
2019-02-27T18:25:29.958Z,68.90
2019-02-27T18:27:59.784Z,69.30
2019-02-27T18:30:28.757Z,69.00
2019-02-27T18:32:57.636Z,69.20
2019-02-27T18:35:29.591Z,69.60
2019-02-27T18:37:56.957Z,70.00
2019-02-27T18:40:25.797Z,70.10
2019-02-27T18:42:56.429Z,69.30
2019-02-27T18:45:29.676Z,70.10
2019-02-27T18:47:58.876Z,70.30
2019-02-27T18:50:27.806Z,70.70
2019-02-27T18:52:56.712Z,70.90
2019-02-27T18:55:29.581Z,71.20
2019-02-27T18:57:56.038Z,71.30
2019-02-27T19:00:26.157Z,71.20
2019-02-27T19:03:03.659Z,71.50
2019-02-27T19:05:32.572Z,71.80
2019-02-27T19:08:01.424Z,71.80
2019-02-27T19:10:30.260Z,72.10
2019-02-27T19:12:59.999Z,72.00
2019-02-27T19:15:29.655Z,72.50
2019-02-27T19:17:58.516Z,72.80
2019-02-27T19:20:32.979Z,73.10
2019-02-27T19:23:01.763Z,72.90
2019-02-27T19:25:34.361Z,72.90
2019-02-27T19:28:01.309Z,72.90
2019-02-27T19:30:30.269Z,73.00
2019-02-27T19:33:01.852Z,73.30
2019-02-27T19:35:29.653Z,73.30
2019-02-27T19:37:58.509Z,73.70
2019-02-27T19:40:30.271Z,73.90
2019-02-27T19:43:02.557Z,74.20
2019-02-27T19:45:31.519Z,74.60
2019-02-27T19:48:00.349Z,75.00
2019-02-27T19:50:29.485Z,75.10
2019-02-27T19:53:03.392Z,75.30
2019-02-27T19:55:28.780Z,75.20
2019-02-27T19:57:57.684Z,75.40
2019-02-27T20:00:33.764Z,75.60
2019-02-27T20:03:01.551Z,75.70
2019-02-27T20:05:30.401Z,75.70
2019-02-27T20:07:59.365Z,76.00
2019-02-27T20:10:31.006Z,76.10
2019-02-27T20:12:58.902Z,76.00
2019-02-27T20:15:30.290Z,76.30
2019-02-27T20:17:59.229Z,76.70
2019-02-27T20:20:30.105Z,76.60
2019-02-27T20:22:59.134Z,76.90
2019-02-27T20:25:32.853Z,77.00
2019-02-27T20:28:01.572Z,77.30
2019-02-27T20:30:30.518Z,77.40
2019-02-27T20:33:02.559Z,77.90
2019-02-27T20:35:30.963Z,78.20
2019-02-27T20:38:01.530Z,78.20
2019-02-27T20:40:33.953Z,78.60
2019-02-27T20:43:01.172Z,78.50
2019-02-27T20:45:30.005Z,78.60
2019-02-27T20:48:01.681Z,78.90
2019-02-27T20:50:38.205Z,79.10
2019-02-27T20:53:08.711Z,79.40
2019-02-27T20:55:40.299Z,79.50
2019-02-27T20:58:08.844Z,79.70
2019-02-27T21:00:37.765Z,79.90
2019-02-27T21:03:06.694Z,80.30
2019-02-27T21:05:35.804Z,80.40
2019-02-27T21:08:04.685Z,80.20
2019-02-27T21:10:34.557Z,80.60
2019-02-27T21:13:03.396Z,80.70
2019-02-27T21:15:33.329Z,81.00
2019-02-27T21:18:02.498Z,81.00
2019-02-27T21:20:33.133Z,81.40
2019-02-27T21:23:01.812Z,81.80
2019-02-27T21:25:30.797Z,82.20
2019-02-27T21:27:59.610Z,82.30
2019-02-27T21:30:28.696Z,82.70
2019-02-27T21:32:57.519Z,82.80
2019-02-27T21:35:29.788Z,82.90
2019-02-27T21:37:57.091Z,83.10
2019-02-27T21:40:25.932Z,83.20
2019-02-27T21:42:54.758Z,83.40
2019-02-27T21:45:24.460Z,83.40
2019-02-27T21:47:53.379Z,83.80
2019-02-27T21:50:24.599Z,84.10
2019-02-27T21:52:55.666Z,84.60
2019-02-27T21:55:23.989Z,84.30
2019-02-27T21:57:52.726Z,84.00
2019-02-27T22:00:26.662Z,82.90
2019-02-27T22:02:56.909Z,82.70
2019-02-27T22:05:25.836Z,81.30
2019-02-27T22:07:54.661Z,80.40
2019-02-27T22:10:23.487Z,78.90
2019-02-27T22:12:52.310Z,78.10
2019-02-27T22:15:30.966Z,76.90
2019-02-27T22:17:59.787Z,76.30
2019-02-27T22:20:28.629Z,75.50
2019-02-27T22:22:57.532Z,75.40
2019-02-27T22:25:30.199Z,74.40
2019-02-27T22:27:58.465Z,74.10
2019-02-27T22:30:27.548Z,73.50
2019-02-27T22:32:56.373Z,73.40
2019-02-27T22:35:25.199Z,73.20
2019-02-27T22:37:54.109Z,72.90
2019-02-27T22:40:24.151Z,72.70
2019-02-27T22:42:52.988Z,72.50
2019-02-27T22:45:22.022Z,72.40
2019-02-27T22:47:53.906Z,72.60
2019-02-27T22:50:21.973Z,72.70
2019-02-27T22:52:54.185Z,73.00
2019-02-27T22:55:21.338Z,73.00
2019-02-27T22:57:50.101Z,73.20
2019-02-27T23:00:42.960Z,73.30
2019-02-27T23:03:10.796Z,73.50
2019-02-27T23:05:39.602Z,73.40
2019-02-27T23:08:08.531Z,74.00
2019-02-27T23:10:37.355Z,74.30
2019-02-27T23:13:06.491Z,74.80
2019-02-27T23:15:35.329Z,75.60
2019-02-27T23:18:05.908Z,75.80
2019-02-27T23:20:35.021Z,77.20
2019-02-27T23:23:03.853Z,76.80
2019-02-27T23:25:32.602Z,76.90
2019-02-27T23:28:02.040Z,77.40
2019-02-27T23:30:31.140Z,77.90
2019-02-27T23:33:02.287Z,78.00
2019-02-27T23:35:30.323Z,78.20
2019-02-27T23:38:02.953Z,78.80
2019-02-27T23:40:29.693Z,78.90
2019-02-27T23:43:02.444Z,79.30
2019-02-27T23:45:29.002Z,79.40
2019-02-27T23:47:59.244Z,79.70
2019-02-27T23:50:28.355Z,79.90
2019-02-27T23:52:57.316Z,80.00
2019-02-27T23:55:26.138Z,80.10
2019-02-27T23:57:57.573Z,80.40
